Terminal Aerodrome Forecast
Issued by NWS Pocatello, ID

Home | Current Version | Previous Version | Text Only | Print | Product List | Glossary On
Versions: 1 2 3 4 5 6 7 8 9 10 11 12 13 14 15 16 17 18 19 20 21 22 23 24
963
FTUS45 KPIH 230838 AAB
TAFPIH
TAF AMD
KPIH 230838Z 2309/2406 25008KT 3/4SM -SN BR SCT005 OVC008
     FM231100 17010KT 6SM -SHSN BR SCT010 OVC020
     FM231600 28012G22KT 1SM -SN BR BKN004 OVC007=

USA.gov is the U.S. government's official web portal to all federal, state and local government web resources and services.